Time;durP1;ratioP1;P1;durP2;ratioP2;P2;SDS_P1;SDS_P2;PMS_P1;PMS_P2;Temp;Humidity;BMP_temperature;BMP_pressure;BME280_temperature;BME280_humidity;BME280_pressure;Samples;Min_cycle;Max_cycle;Signal;HPM_P1;HPM_P2
2023/09/22 00:01:02;;;;;;;16.33;14.63;;;15.60;85.80;;;;;;5109402;28;20043;-72
2023/09/22 00:03:31;;;;;;;16.58;14.80;;;15.60;85.80;;;;;;5104673;28;20097;-71
2023/09/22 00:05:57;;;;;;;15.55;13.63;;;15.60;85.80;;;;;;5098065;28;20048;-71
2023/09/22 00:08:23;;;;;;;10.98;9.77;;;15.60;86.20;;;;;;5095461;28;20032;-71
2023/09/22 00:10:48;;;;;;;15.73;13.30;;;15.60;85.80;;;;;;5093779;28;20568;-72
2023/09/22 00:13:14;;;;;;;19.35;15.02;;;15.60;85.80;;;;;;5095451;28;20048;-71
2023/09/22 00:15:40;;;;;;;16.80;15.00;;;15.70;85.80;;;;;;5096335;28;20495;-71
2023/09/22 00:18:06;;;;;;;17.45;15.35;;;15.70;85.70;;;;;;5109955;28;20032;-71
2023/09/22 00:20:32;;;;;;;14.30;10.95;;;15.70;85.70;;;;;;5113852;28;20035;-72
2023/09/22 00:22:57;;;;;;;17.33;15.52;;;15.70;85.70;;;;;;5109359;28;20529;-71
2023/09/22 00:25:23;;;;;;;17.52;15.73;;;15.70;85.70;;;;;;5079260;28;20040;-71
2023/09/22 00:27:49;;;;;;;18.45;16.55;;;15.70;85.60;;;;;;5046831;28;20139;-72
2023/09/22 00:30:15;;;;;;;16.80;15.10;;;15.70;85.60;;;;;;5093509;28;20395;-71
2023/09/22 00:32:40;;;;;;;17.95;16.08;;;15.70;85.70;;;;;;5078796;28;20127;-72
2023/09/22 00:35:09;;;;;;;14.90;12.85;;;15.70;85.70;;;;;;5104701;28;20047;-72
2023/09/22 00:37:35;;;;;;;17.65;15.85;;;15.70;85.70;;;;;;5095139;28;20115;-72
2023/09/22 00:40:00;;;;;;;18.08;16.20;;;15.70;85.70;;;;;;5100682;28;20102;-71
2023/09/22 00:42:26;;;;;;;19.30;17.40;;;15.70;85.70;;;;;;5076814;28;20065;-72
2023/09/22 00:44:52;;;;;;;14.88;13.38;;;15.70;85.70;;;;;;5104485;28;20039;-71
2023/09/22 00:47:17;;;;;;;17.00;15.23;;;15.70;85.60;;;;;;5113414;28;20043;-71
2023/09/22 00:49:45;;;;;;;14.55;13.05;;;15.70;85.60;;;;;;5100864;28;20040;-72
2023/09/22 00:52:13;;;;;;;15.07;13.68;;;15.70;85.60;;;;;;5097160;28;20075;-71
2023/09/22 00:54:40;;;;;;;17.98;16.08;;;15.70;85.60;;;;;;5105124;28;20043;-72
2023/09/22 00:57:05;;;;;;;15.55;14.05;;;15.70;85.50;;;;;;5102833;28;20066;-72
2023/09/22 00:59:34;;;;;;;15.93;14.32;;;15.70;85.50;;;;;;5090903;28;20062;-72
2023/09/22 01:02:00;;;;;;;18.35;16.35;;;15.70;85.50;;;;;;5111220;28;20387;-72
2023/09/22 01:04:27;;;;;;;15.70;14.13;;;15.70;85.50;;;;;;5096214;28;20096;-72
2023/09/22 01:06:55;;;;;;;16.08;14.48;;;15.70;85.40;;;;;;5100802;28;20045;-71
2023/09/22 01:09:21;;;;;;;14.90;13.43;;;15.70;85.30;;;;;;5099857;28;20495;-71
2023/09/22 01:11:47;;;;;;;17.20;15.40;;;15.70;85.30;;;;;;5096666;28;20079;-71
2023/09/22 01:14:13;;;;;;;18.60;16.60;;;15.70;85.20;;;;;;5101758;28;20074;-71
2023/09/22 01:16:39;;;;;;;11.75;10.60;;;15.70;85.10;;;;;;5113168;28;20071;-71
2023/09/22 01:19:16;;;;;;;11.82;10.63;;;15.70;85.00;;;;;;5095350;28;20035;-71
2023/09/22 01:21:49;;;;;;;15.15;13.73;;;15.70;85.00;;;;;;5101473;28;20036;-71
2023/09/22 01:24:15;;;;;;;12.60;11.38;;;15.70;84.90;;;;;;5097306;28;20402;-71
2023/09/22 01:26:41;;;;;;;14.02;12.63;;;15.70;84.80;;;;;;5106841;28;20038;-71
2023/09/22 01:29:07;;;;;;;13.43;12.02;;;15.70;84.80;;;;;;5092607;28;20042;-72
2023/09/22 01:31:36;;;;;;;15.38;13.65;;;15.70;84.70;;;;;;5092408;28;20082;-72
2023/09/22 01:34:02;;;;;;;15.38;13.77;;;15.70;84.60;;;;;;5108347;28;20047;-72
2023/09/22 01:36:28;;;;;;;15.65;12.65;;;15.70;84.60;;;;;;5094008;28;20511;-72
2023/09/22 01:38:55;;;;;;;11.35;10.25;;;15.70;84.60;;;;;;5111945;28;20082;-71
2023/09/22 01:41:20;;;;;;;13.43;11.07;;;15.70;84.50;;;;;;5107809;28;20372;-71
2023/09/22 01:43:46;;;;;;;17.88;14.68;;;15.70;84.50;;;;;;5106305;28;20080;-72
2023/09/22 01:46:11;;;;;;;15.73;14.02;;;15.70;84.40;;;;;;5106605;28;20123;-71
2023/09/22 01:48:37;;;;;;;17.02;15.23;;;15.70;84.40;;;;;;5092310;28;20059;-71
2023/09/22 01:51:03;;;;;;;13.45;12.10;;;15.70;84.30;;;;;;5092106;28;20078;-71
2023/09/22 01:53:29;;;;;;;16.98;15.18;;;15.70;84.30;;;;;;5081587;28;20032;-72
2023/09/22 01:55:55;;;;;;;14.13;12.63;;;15.70;84.30;;;;;;5094857;28;20098;-72
2023/09/22 01:58:21;;;;;;;12.80;11.25;;;15.70;84.70;;;;;;5088721;28;20687;-72
2023/09/22 02:00:48;;;;;;;13.18;11.77;;;15.70;84.30;;;;;;5112010;28;20043;-72
2023/09/22 02:03:14;;;;;;;14.15;12.18;;;15.70;84.20;;;;;;5088498;28;20059;-71
2023/09/22 02:05:40;;;;;;;14.18;12.57;;;15.70;84.20;;;;;;5076890;28;20058;-71
2023/09/22 02:08:08;;;;;;;9.90;8.90;;;15.70;84.10;;;;;;5093636;28;20036;-71
2023/09/22 02:10:34;;;;;;;12.05;10.77;;;15.70;84.10;;;;;;5105440;28;20036;-72
2023/09/22 02:13:00;;;;;;;12.60;10.70;;;15.70;84.00;;;;;;5100566;28;20093;-72
2023/09/22 02:15:25;;;;;;;11.48;9.80;;;15.70;83.90;;;;;;5100526;28;20067;-72
2023/09/22 02:17:51;;;;;;;12.35;10.32;;;15.70;83.80;;;;;;5106254;28;20043;-72
2023/09/22 02:22:46;;;;;;;12.88;10.77;;;15.80;83.80;;;;;;5081808;28;20104;-72
2023/09/22 02:25:13;;;;;;;11.30;9.88;;;15.80;83.70;;;;;;5094276;28;20487;-71
2023/09/22 02:27:40;;;;;;;11.07;9.65;;;15.80;83.60;;;;;;5105636;28;20053;-71
2023/09/22 02:30:08;;;;;;;10.60;9.20;;;15.70;83.40;;;;;;5110925;28;20075;-72
2023/09/22 02:32:34;;;;;;;10.65;9.55;;;15.80;83.40;;;;;;5110723;28;20639;-72
2023/09/22 02:35:00;;;;;;;11.00;9.43;;;15.80;83.30;;;;;;5109673;28;20106;-72
2023/09/22 02:37:25;;;;;;;9.75;8.75;;;15.80;83.20;;;;;;5105713;28;20120;-72
2023/09/22 02:39:51;;;;;;;11.50;8.88;;;15.80;83.10;;;;;;5074856;28;20043;-71
2023/09/22 02:42:17;;;;;;;12.13;10.82;;;15.80;83.00;;;;;;5078126;28;20032;-71
2023/09/22 02:44:42;;;;;;;10.73;9.63;;;15.80;82.90;;;;;;5063724;28;20499;-71
2023/09/22 02:47:08;;;;;;;12.65;10.55;;;15.80;82.90;;;;;;5104418;28;20510;-71
2023/09/22 02:49:34;;;;;;;10.55;9.45;;;15.70;82.80;;;;;;5099259;28;20037;-72
2023/09/22 02:51:59;;;;;;;12.00;10.05;;;15.80;82.80;;;;;;5107510;28;20372;-71
2023/09/22 02:54:25;;;;;;;10.50;9.40;;;15.80;82.80;;;;;;5100209;28;20115;-72
2023/09/22 02:56:51;;;;;;;12.35;10.18;;;15.80;82.70;;;;;;5091723;28;20040;-72
2023/09/22 02:59:19;;;;;;;9.93;8.70;;;15.80;82.70;;;;;;5103382;28;20548;-72
2023/09/22 03:01:45;;;;;;;13.95;11.32;;;15.80;82.50;;;;;;5095352;28;20040;-72
2023/09/22 03:04:10;;;;;;;15.73;10.90;;;15.80;82.50;;;;;;5102460;28;20492;-72
2023/09/22 03:06:37;;;;;;;12.20;10.95;;;15.80;82.50;;;;;;5107554;28;20039;-72
2023/09/22 03:09:06;;;;;;;11.45;10.23;;;15.80;82.50;;;;;;5110506;28;20043;-72
2023/09/22 03:11:33;;;;;;;13.48;11.80;;;15.80;82.50;;;;;;5103697;28;20101;-72
2023/09/22 03:13:59;;;;;;;13.32;10.95;;;15.80;82.50;;;;;;5079698;28;20058;-72
2023/09/22 03:16:27;;;;;;;15.68;12.18;;;15.80;82.60;;;;;;5096282;28;20036;-71
2023/09/22 03:18:53;;;;;;;14.75;12.05;;;15.80;82.70;;;;;;5103673;28;20032;-72
2023/09/22 03:21:22;;;;;;;13.90;11.70;;;15.80;82.70;;;;;;5101554;28;20032;-72
2023/09/22 03:23:52;;;;;;;12.15;8.98;;;15.70;82.70;;;;;;5083469;28;20035;-72
2023/09/22 03:26:18;;;;;;;9.43;6.68;;;15.70;82.70;;;;;;5093364;28;20043;-72
2023/09/22 03:28:48;;;;;;;13.90;9.23;;;15.70;82.60;;;;;;5094943;28;20044;-72
2023/09/22 03:31:19;;;;;;;11.45;7.93;;;15.70;82.60;;;;;;5098378;28;20140;-72
2023/09/22 03:33:48;;;;;;;10.10;7.13;;;15.70;82.70;;;;;;5109377;28;20067;-72
2023/09/22 03:36:14;;;;;;;12.80;9.13;;;15.70;82.70;;;;;;5094597;28;20036;-71
2023/09/22 03:38:41;;;;;;;11.82;7.80;;;15.70;82.70;;;;;;5103621;28;20036;-71
2023/09/22 03:41:07;;;;;;;14.70;9.73;;;15.70;82.60;;;;;;5113282;28;20521;-72
2023/09/22 03:43:33;;;;;;;12.38;9.73;;;15.60;82.60;;;;;;5111568;28;20036;-72
2023/09/22 03:45:59;;;;;;;14.38;9.57;;;15.60;82.50;;;;;;5103202;28;20058;-72
2023/09/22 03:48:25;;;;;;;12.70;9.50;;;15.60;82.50;;;;;;5102000;28;20479;-72
2023/09/22 03:50:51;;;;;;;12.95;9.98;;;15.60;82.60;;;;;;5077503;28;20531;-72
2023/09/22 03:53:17;;;;;;;14.27;11.60;;;15.60;82.70;;;;;;5104839;28;20494;-71
2023/09/22 03:55:46;;;;;;;16.05;13.30;;;15.60;82.70;;;;;;5094285;28;20036;-71
2023/09/22 03:58:12;;;;;;;16.38;11.88;;;15.50;82.60;;;;;;5095389;28;20043;-71
2023/09/22 04:00:38;;;;;;;14.98;11.88;;;15.50;82.60;;;;;;5095013;28;20036;-72
2023/09/22 04:03:07;;;;;;;18.35;15.60;;;15.50;82.50;;;;;;5100309;28;20039;-71
2023/09/22 04:05:34;;;;;;;17.50;15.48;;;15.50;82.50;;;;;;5106884;28;20118;-71
2023/09/22 04:08:00;;;;;;;19.00;16.48;;;15.50;82.30;;;;;;5114515;28;20501;-72
2023/09/22 04:10:26;;;;;;;19.38;15.88;;;15.50;82.30;;;;;;5085866;28;20479;-72
2023/09/22 04:12:52;;;;;;;18.63;15.95;;;15.50;82.20;;;;;;5095276;28;20108;-72
2023/09/22 04:15:18;;;;;;;15.73;13.82;;;15.50;82.20;;;;;;5103075;28;20055;-72
2023/09/22 04:17:45;;;;;;;22.50;17.20;;;15.40;82.10;;;;;;5095354;28;20168;-72
2023/09/22 04:20:12;;;;;;;15.80;14.07;;;15.40;82.10;;;;;;5083267;28;20052;-72
2023/09/22 04:22:38;;;;;;;18.77;16.77;;;15.40;82.20;;;;;;5077217;28;20044;-72
2023/09/22 04:25:11;;;;;;;19.20;16.85;;;15.40;82.10;;;;;;5101848;28;20565;-72
2023/09/22 04:27:43;;;;;;;19.58;17.38;;;15.40;82.20;;;;;;5105276;28;20044;-72
2023/09/22 04:30:16;;;;;;;19.77;17.17;;;15.40;82.20;;;;;;5074810;28;20040;-72
2023/09/22 04:32:45;;;;;;;23.83;20.02;;;15.40;82.10;;;;;;5094597;28;20141;-72
2023/09/22 04:35:11;;;;;;;21.85;18.60;;;15.30;82.10;;;;;;5087638;28;20039;-72
2023/09/22 04:37:37;;;;;;;20.83;17.27;;;15.40;82.00;;;;;;5096967;28;20097;-72
2023/09/22 04:40:09;;;;;;;22.27;19.23;;;15.30;82.00;;;;;;5095852;28;20528;-72
2023/09/22 04:42:35;;;;;;;16.73;14.95;;;15.30;81.90;;;;;;5106113;28;20066;-72
2023/09/22 04:45:00;;;;;;;18.63;15.93;;;15.30;82.00;;;;;;5076499;28;20483;-72
2023/09/22 04:47:26;;;;;;;22.67;18.98;;;15.30;82.00;;;;;;5105931;28;20044;-72
2023/09/22 04:49:52;;;;;;;21.50;18.52;;;15.30;82.00;;;;;;5082698;28;20071;-72
2023/09/22 04:52:18;;;;;;;22.38;17.25;;;15.30;81.80;;;;;;5094255;28;20377;-72
2023/09/22 04:54:43;;;;;;;20.80;17.85;;;15.20;81.80;;;;;;5068834;28;20098;-72
2023/09/22 04:57:09;;;;;;;29.55;21.92;;;15.20;81.80;;;;;;5103276;28;20036;-72
2023/09/22 04:59:35;;;;;;;24.77;20.20;;;15.20;81.70;;;;;;5112528;28;20043;-72
2023/09/22 05:02:01;;;;;;;25.38;19.65;;;15.10;81.60;;;;;;5102123;28;20040;-72
2023/09/22 05:04:29;;;;;;;24.90;19.45;;;15.20;81.70;;;;;;5095580;28;20040;-72
2023/09/22 05:06:54;;;;;;;26.13;21.15;;;15.10;81.80;;;;;;5087977;28;20104;-72
2023/09/22 05:09:20;;;;;;;26.50;22.55;;;15.10;81.80;;;;;;5095885;28;20491;-72
2023/09/22 05:11:46;;;;;;;27.55;20.88;;;15.00;81.70;;;;;;5111645;28;20056;-72
2023/09/22 05:14:12;;;;;;;26.50;22.05;;;15.00;81.80;;;;;;5081346;28;20067;-72
2023/09/22 05:16:38;;;;;;;29.67;21.88;;;15.00;81.90;;;;;;5112964;28;20040;-72
2023/09/22 05:19:03;;;;;;;28.52;23.20;;;14.90;81.90;;;;;;5111659;28;20380;-71
2023/09/22 05:21:29;;;;;;;29.08;22.90;;;14.90;81.90;;;;;;5099996;28;20118;-71
2023/09/22 05:23:55;;;;;;;31.35;24.02;;;14.90;82.00;;;;;;5092293;28;20080;-74
2023/09/22 05:26:21;;;;;;;30.75;24.33;;;14.90;82.10;;;;;;5113040;28;20036;-74
2023/09/22 05:28:49;;;;;;;31.20;24.45;;;14.80;82.20;;;;;;5089491;28;20047;-74
2023/09/22 05:31:16;;;;;;;29.83;22.52;;;14.70;82.20;;;;;;5112028;28;20131;-74
2023/09/22 05:33:42;;;;;;;30.05;23.65;;;14.70;82.30;;;;;;5095357;28;20039;-74
2023/09/22 05:36:08;;;;;;;29.60;22.63;;;14.70;82.40;;;;;;5094121;28;20379;-74
2023/09/22 05:38:33;;;;;;;29.85;22.80;;;14.70;82.50;;;;;;5074995;28;20040;-74
2023/09/22 05:40:59;;;;;;;27.52;22.25;;;14.70;82.50;;;;;;5101651;28;20126;-74
2023/09/22 05:43:25;;;;;;;28.48;22.77;;;14.60;82.60;;;;;;5112869;28;20043;-74
2023/09/22 05:45:55;;;;;;;24.95;20.27;;;14.60;82.70;;;;;;5095140;28;20448;-74
2023/09/22 05:48:21;;;;;;;32.65;23.33;;;14.50;82.80;;;;;;5109580;28;20202;-74
2023/09/22 05:50:59;;;;;;;24.95;20.55;;;14.50;82.90;;;;;;5092274;28;20619;-74
2023/09/22 05:53:25;;;;;;;26.17;20.83;;;14.60;83.10;;;;;;5095047;28;20028;-74
2023/09/22 05:56:11;;;;;;;32.78;22.42;;;14.50;83.20;;;;;;5112499;28;20092;-74
2023/09/22 05:58:40;;;;;;;28.00;20.92;;;14.50;83.30;;;;;;5110479;28;20118;-74
2023/09/22 06:01:11;;;;;;;26.02;19.83;;;14.40;83.40;;;;;;5086285;28;20043;-74
2023/09/22 06:03:38;;;;;;;21.52;17.98;;;14.40;83.50;;;;;;5099351;28;20035;-74
2023/09/22 06:06:09;;;;;;;21.67;17.35;;;14.40;83.50;;;;;;5095323;28;20620;-74
2023/09/22 06:08:39;;;;;;;24.00;17.58;;;14.40;83.60;;;;;;5104659;28;20856;-74
2023/09/22 06:11:05;;;;;;;23.70;16.70;;;14.40;83.60;;;;;;5091729;28;20056;-74
2023/09/22 06:13:32;;;;;;;23.50;16.67;;;14.40;83.70;;;;;;5092173;28;20469;-74
2023/09/22 06:15:58;;;;;;;24.38;16.83;;;14.40;83.80;;;;;;5075919;28;20036;-74
2023/09/22 06:18:24;;;;;;;20.75;15.63;;;14.40;83.90;;;;;;5109686;28;20553;-74
2023/09/22 06:20:56;;;;;;;23.08;16.50;;;14.40;84.00;;;;;;5075138;28;20036;-74
2023/09/22 06:23:26;;;;;;;26.02;16.60;;;14.40;84.00;;;;;;5098010;28;20051;-74
2023/09/22 06:25:54;;;;;;;26.38;17.00;;;14.40;84.00;;;;;;5109977;28;20047;-74
2023/09/22 06:28:20;;;;;;;21.65;16.13;;;14.40;84.00;;;;;;5075341;28;20040;-74
2023/09/22 06:30:46;;;;;;;20.23;15.43;;;14.40;84.20;;;;;;5091876;28;20150;-74
2023/09/22 06:33:16;;;;;;;21.85;15.77;;;14.40;84.20;;;;;;5097033;28;20031;-74
2023/09/22 06:35:46;;;;;;;17.90;14.20;;;14.40;84.20;;;;;;5095064;28;20028;-74
2023/09/22 06:38:13;;;;;;;22.42;16.10;;;14.40;84.40;;;;;;5085448;28;20044;-74
2023/09/22 06:40:39;;;;;;;26.90;15.55;;;14.40;84.40;;;;;;5085935;28;20498;-74
2023/09/22 06:43:08;;;;;;;20.60;15.48;;;14.40;84.50;;;;;;5102899;28;20120;-74
2023/09/22 06:45:37;;;;;;;21.65;14.95;;;14.50;84.60;;;;;;5098448;28;20126;-74
2023/09/22 06:48:05;;;;;;;21.33;15.02;;;14.50;84.70;;;;;;5104867;28;20063;-74
2023/09/22 06:50:35;;;;;;;24.35;15.02;;;14.50;84.60;;;;;;5107747;28;20055;-73
2023/09/22 06:53:01;;;;;;;19.38;15.13;;;14.50;84.50;;;;;;5101514;28;20089;-74
2023/09/22 06:55:26;;;;;;;24.90;15.90;;;14.50;84.40;;;;;;5097986;28;20027;-73
2023/09/22 06:57:53;;;;;;;23.40;16.20;;;14.50;84.40;;;;;;5088501;28;20031;-74
2023/09/22 07:00:22;;;;;;;23.70;16.15;;;14.50;84.40;;;;;;5090730;28;20046;-73
2023/09/22 07:02:48;;;;;;;18.95;14.57;;;14.50;84.50;;;;;;5100753;28;20051;-74
2023/09/22 07:05:15;;;;;;;18.38;15.40;;;14.50;84.50;;;;;;5095683;28;20099;-73
2023/09/22 07:07:41;;;;;;;20.90;15.55;;;14.60;84.60;;;;;;5085963;28;20495;-74
2023/09/22 07:10:10;;;;;;;18.98;14.82;;;14.60;84.60;;;;;;5097711;28;20042;-74
2023/09/22 07:12:37;;;;;;;20.45;14.50;;;14.60;84.60;;;;;;5106044;28;20127;-73
2023/09/22 07:15:04;;;;;;;18.63;14.43;;;14.60;84.60;;;;;;5115196;28;20051;-74
2023/09/22 07:17:31;;;;;;;19.10;14.70;;;14.60;84.60;;;;;;5115291;28;20207;-73
2023/09/22 07:19:57;;;;;;;16.48;13.90;;;14.60;84.60;;;;;;5097139;28;20425;-74
2023/09/22 07:22:23;;;;;;;20.10;13.70;;;14.70;85.00;;;;;;5104087;28;20491;-74
2023/09/22 07:24:51;;;;;;;15.45;12.48;;;14.70;84.60;;;;;;5061447;28;20051;-74
2023/09/22 07:27:17;;;;;;;16.65;13.10;;;14.70;84.60;;;;;;5094584;28;20123;-74
2023/09/22 07:29:43;;;;;;;17.40;12.85;;;14.80;84.60;;;;;;5093456;28;20182;-74
2023/09/22 07:32:09;;;;;;;18.42;12.45;;;14.80;84.60;;;;;;5097291;28;20700;-74
2023/09/22 07:34:34;;;;;;;15.40;11.88;;;14.80;84.60;;;;;;5097321;28;20035;-74
2023/09/22 07:37:00;;;;;;;19.67;13.13;;;14.90;84.60;;;;;;5114767;28;20043;-73
2023/09/22 07:39:26;;;;;;;14.15;11.25;;;14.90;84.50;;;;;;5093926;28;20368;-74
2023/09/22 07:41:51;;;;;;;14.05;10.93;;;14.90;84.30;;;;;;5090068;28;20036;-73
2023/09/22 07:44:21;;;;;;;12.77;10.18;;;15.00;84.20;;;;;;5094376;28;20040;-73
2023/09/22 07:46:48;;;;;;;12.55;10.13;;;15.00;84.20;;;;;;5094633;28;20040;-74
2023/09/22 07:49:15;;;;;;;11.93;9.27;;;15.00;84.00;;;;;;5098918;28;20575;-74
2023/09/22 07:51:41;;;;;;;13.48;9.77;;;15.10;83.90;;;;;;5114528;28;20082;-74
2023/09/22 07:54:08;;;;;;;9.35;8.35;;;15.10;84.00;;;;;;5091459;28;20079;-74
2023/09/22 07:56:34;;;;;;;10.35;8.18;;;15.10;83.50;;;;;;5100058;28;20039;-74
2023/09/22 07:59:02;;;;;;;9.88;7.88;;;15.30;83.50;;;;;;5096135;28;20040;-75
2023/09/22 08:01:27;;;;;;;9.68;8.52;;;15.20;83.20;;;;;;5077001;28;20051;-76
2023/09/22 08:03:53;;;;;;;9.10;7.50;;;15.30;83.30;;;;;;5086513;28;20040;-76
2023/09/22 08:06:19;;;;;;;8.25;7.15;;;15.30;83.20;;;;;;5098817;28;20043;-75
2023/09/22 08:08:49;;;;;;;10.18;7.07;;;15.40;83.20;;;;;;5114190;28;20043;-75
2023/09/22 08:11:17;;;;;;;8.45;6.63;;;15.40;83.10;;;;;;5096846;28;20055;-75
2023/09/22 08:13:46;;;;;;;8.32;6.65;;;15.40;83.00;;;;;;5097703;28;20390;-75
2023/09/22 08:16:13;;;;;;;7.03;5.10;;;15.50;83.00;;;;;;5093829;28;20467;-74
2023/09/22 08:18:40;;;;;;;9.00;5.40;;;15.60;82.80;;;;;;5112892;28;20398;-74
2023/09/22 08:21:07;;;;;;;9.32;5.57;;;15.70;82.30;;;;;;5097105;28;20044;-74
2023/09/22 08:23:32;;;;;;;8.13;5.38;;;15.80;81.90;;;;;;5097086;28;20043;-74
2023/09/22 08:25:58;;;;;;;7.63;5.32;;;15.80;81.50;;;;;;5097169;28;20506;-74
2023/09/22 08:28:25;;;;;;;7.22;4.60;;;15.90;81.30;;;;;;5113757;28;20039;-74
2023/09/22 08:30:55;;;;;;;5.30;4.72;;;16.00;80.90;;;;;;5113753;28;20486;-74
2023/09/22 08:33:21;;;;;;;6.20;4.72;;;16.10;80.10;;;;;;5092608;28;20511;-74
2023/09/22 08:35:51;;;;;;;6.35;4.53;;;16.10;80.00;;;;;;5113397;28;20043;-74
2023/09/22 08:38:18;;;;;;;5.80;4.60;;;16.20;79.90;;;;;;5113558;28;20035;-74
2023/09/22 08:40:47;;;;;;;4.60;3.83;;;16.30;79.90;;;;;;5095345;28;20108;-74
2023/09/22 08:43:13;;;;;;;5.68;3.72;;;16.30;79.10;;;;;;5113574;28;20043;-74
2023/09/22 08:45:40;;;;;;;5.80;3.92;;;16.40;78.70;;;;;;5113518;28;20051;-74
2023/09/22 08:48:07;;;;;;;4.65;3.20;;;16.50;78.10;;;;;;5095773;28;20513;-74
2023/09/22 08:50:32;;;;;;;3.75;2.83;;;16.50;77.40;;;;;;5111408;28;20067;-74
2023/09/22 08:52:58;;;;;;;6.05;3.38;;;16.60;76.80;;;;;;5102543;28;20067;-74
2023/09/22 08:55:25;;;;;;;3.80;2.70;;;16.60;76.60;;;;;;5096682;28;20044;-74
2023/09/22 08:57:53;;;;;;;4.95;2.95;;;16.70;76.50;;;;;;5096044;28;20081;-74
2023/09/22 09:00:26;;;;;;;3.97;2.65;;;16.70;76.40;;;;;;5092816;28;20040;-74
2023/09/22 09:02:55;;;;;;;5.00;2.45;;;16.70;75.80;;;;;;5076297;28;20040;-74
2023/09/22 09:05:31;;;;;;;3.97;2.50;;;16.80;75.40;;;;;;5093953;28;20048;-74
2023/09/22 09:08:10;;;;;;;4.57;2.42;;;16.80;75.10;;;;;;5093211;28;20123;-74
2023/09/22 09:10:36;;;;;;;5.32;2.40;;;16.80;75.30;;;;;;5088818;28;20040;-74
2023/09/22 09:13:03;;;;;;;5.32;2.65;;;16.90;75.60;;;;;;5092411;28;20052;-74
2023/09/22 09:15:51;;;;;;;4.55;2.28;;;17.00;75.90;;;;;;5092648;28;20032;-74
2023/09/22 09:18:19;;;;;;;4.07;2.17;;;17.10;75.90;;;;;;5109419;28;20123;-74
2023/09/22 09:20:47;;;;;;;4.30;2.47;;;17.20;75.60;;;;;;5099916;28;20043;-74
2023/09/22 09:23:17;;;;;;;4.20;2.10;;;17.40;74.10;;;;;;5112288;28;20071;-74
2023/09/22 09:25:49;;;;;;;4.57;2.00;;;17.50;73.70;;;;;;5113054;28;20133;-74
2023/09/22 09:28:17;;;;;;;4.60;2.10;;;17.60;72.20;;;;;;5112979;28;20441;-74
2023/09/22 09:31:01;;;;;;;3.83;1.80;;;17.60;71.60;;;;;;5112792;28;20131;-74
2023/09/22 09:33:30;;;;;;;5.15;1.77;;;17.70;70.60;;;;;;5079310;28;20436;-74
2023/09/22 09:35:56;;;;;;;3.55;2.20;;;17.70;70.50;;;;;;5110846;28;20436;-74
2023/09/22 09:38:27;;;;;;;3.50;1.48;;;17.70;70.50;;;;;;5107640;28;20040;-74
2023/09/22 09:40:54;;;;;;;2.75;1.65;;;17.80;70.70;;;;;;5112205;28;20122;-74
2023/09/22 09:43:20;;;;;;;2.17;1.42;;;17.80;70.20;;;;;;5112605;28;20043;-73
2023/09/22 09:45:52;;;;;;;4.90;1.77;;;17.90;69.50;;;;;;5094499;28;20509;-73
2023/09/22 09:48:19;;;;;;;3.10;1.77;;;17.90;69.00;;;;;;5095618;28;20123;-73
2023/09/22 09:50:46;;;;;;;2.05;1.40;;;18.00;68.70;;;;;;5112166;28;20164;-73
2023/09/22 09:53:23;;;;;;;2.53;1.30;;;18.00;68.10;;;;;;5099802;28;20486;-71
2023/09/22 09:55:52;;;;;;;2.97;1.13;;;18.10;67.10;;;;;;5091701;28;20375;-72
2023/09/22 09:58:19;;;;;;;3.08;1.40;;;18.20;66.30;;;;;;5091735;28;20047;-72
2023/09/22 10:00:46;;;;;;;2.92;1.70;;;18.30;66.10;;;;;;5092545;28;20048;-72
2023/09/22 10:03:13;;;;;;;2.70;1.73;;;18.30;65.70;;;;;;5097810;28;20039;-72
2023/09/22 10:05:40;;;;;;;2.10;1.30;;;18.40;65.80;;;;;;5111724;28;20056;-72
2023/09/22 10:08:07;;;;;;;2.28;1.27;;;18.50;65.80;;;;;;5112089;28;20138;-73
2023/09/22 10:10:38;;;;;;;1.88;1.40;;;18.60;65.20;;;;;;5105697;28;20375;-73
2023/09/22 10:13:07;;;;;;;3.03;1.55;;;18.70;65.40;;;;;;5100353;28;20047;-72
2023/09/22 10:15:52;;;;;;;2.97;1.60;;;18.80;64.20;;;;;;5091814;28;20486;-73
2023/09/22 10:18:18;;;;;;;1.92;1.40;;;18.90;63.80;;;;;;5108995;28;20039;-73
2023/09/22 10:20:45;;;;;;;4.05;1.25;;;18.90;63.30;;;;;;5111869;28;20126;-72
2023/09/22 10:23:25;;;;;;;2.65;1.48;;;19.00;62.70;;;;;;5111867;28;20127;-73
2023/09/22 10:26:13;;;;;;;1.23;1.10;;;19.10;61.40;;;;;;5111756;28;20483;-73
2023/09/22 10:28:39;;;;;;;1.58;1.13;;;19.10;60.80;;;;;;5077932;28;20438;-73
2023/09/22 10:31:05;;;;;;;3.55;1.33;;;19.20;60.80;;;;;;5111875;28;20058;-73
2023/09/22 10:33:32;;;;;;;2.08;0.90;;;19.20;60.60;;;;;;5086834;28;20480;-73
2023/09/22 10:35:58;;;;;;;2.85;1.25;;;19.30;60.00;;;;;;5091475;28;20044;-73
2023/09/22 10:38:25;;;;;;;2.17;1.08;;;19.30;60.20;;;;;;5091241;28;20537;-72
2023/09/22 10:40:59;;;;;;;3.38;1.30;;;19.40;60.40;;;;;;5091640;28;20079;-72
2023/09/22 10:43:26;;;;;;;2.50;1.00;;;19.50;60.00;;;;;;5108734;28;20040;-73
2023/09/22 10:45:52;;;;;;;2.00;1.02;;;19.50;59.90;;;;;;5094658;28;20047;-72
2023/09/22 10:48:18;;;;;;;2.25;1.40;;;19.60;59.60;;;;;;5111604;28;20039;-73
2023/09/22 10:50:49;;;;;;;1.48;1.27;;;19.60;58.80;;;;;;5103380;28;20036;-73
2023/09/22 10:53:15;;;;;;;3.50;1.40;;;19.60;58.50;;;;;;5110865;28;20050;-72
2023/09/22 10:55:43;;;;;;;3.20;1.50;;;19.60;58.90;;;;;;5097789;28;20044;-74
2023/09/22 10:58:15;;;;;;;2.67;1.80;;;19.60;59.20;;;;;;5103410;28;20113;-73
2023/09/22 11:00:54;;;;;;;2.50;1.58;;;19.70;59.40;;;;;;5091779;28;20487;-72
2023/09/22 11:03:20;;;;;;;2.05;1.52;;;19.60;59.10;;;;;;5107679;28;20096;-73
2023/09/22 11:06:10;;;;;;;1.73;1.40;;;19.60;59.10;;;;;;5093176;28;20431;-73
2023/09/22 11:08:52;;;;;;;2.45;1.55;;;19.70;59.90;;;;;;5088992;28;20036;-74
2023/09/22 11:11:19;;;;;;;2.05;1.58;;;19.70;60.00;;;;;;5091052;28;20123;-72
2023/09/22 11:13:56;;;;;;;3.15;1.67;;;19.70;59.80;;;;;;5092098;28;20060;-72
2023/09/22 11:16:24;;;;;;;4.22;1.90;;;19.70;59.60;;;;;;5090962;28;20044;-72
2023/09/22 11:19:04;;;;;;;1.98;1.48;;;19.70;59.60;;;;;;5109182;28;20491;-73
2023/09/22 11:21:37;;;;;;;2.75;1.85;;;19.70;59.40;;;;;;5104767;28;20084;-73
2023/09/22 11:24:05;;;;;;;2.58;1.40;;;19.70;59.10;;;;;;5105956;28;20071;-73
2023/09/22 11:26:40;;;;;;;2.13;1.50;;;19.60;59.30;;;;;;5090897;28;20555;-72
2023/09/22 11:29:06;;;;;;;2.88;1.33;;;19.60;59.10;;;;;;5091428;28;20039;-72
2023/09/22 11:31:32;;;;;;;2.65;1.50;;;19.60;59.40;;;;;;5094964;28;20040;-72
2023/09/22 11:34:03;;;;;;;2.20;1.58;;;19.60;59.60;;;;;;5105428;28;20036;-73
2023/09/22 11:36:53;;;;;;;2.97;1.30;;;19.60;59.50;;;;;;5105684;28;20391;-72
2023/09/22 11:39:29;;;;;;;2.67;1.20;;;19.60;59.50;;;;;;5087989;28;20043;-72
2023/09/22 11:41:55;;;;;;;2.90;1.33;;;19.60;60.20;;;;;;5105514;28;20472;-72
2023/09/22 11:44:21;;;;;;;2.40;1.50;;;19.70;59.70;;;;;;5100126;28;20027;-71
2023/09/22 11:46:48;;;;;;;2.60;1.50;;;19.70;59.30;;;;;;5091519;28;20386;-72
2023/09/22 11:49:14;;;;;;;4.88;1.75;;;19.70;59.40;;;;;;5105707;28;20048;-73
2023/09/22 11:51:39;;;;;;;2.88;1.58;;;19.70;59.40;;;;;;5068483;28;20029;-72
2023/09/22 11:54:06;;;;;;;2.17;1.42;;;19.70;59.40;;;;;;5086413;28;20548;-73
2023/09/22 11:56:32;;;;;;;4.00;1.67;;;19.70;59.70;;;;;;5098794;28;20044;-73
2023/09/22 11:59:12;;;;;;;4.47;1.75;;;19.70;60.00;;;;;;5084950;28;20067;-73
2023/09/22 12:01:38;;;;;;;3.42;1.80;;;19.70;58.60;;;;;;5082977;28;20138;-74
2023/09/22 12:04:07;;;;;;;2.25;1.50;;;19.70;59.00;;;;;;5082167;28;20046;-74
2023/09/22 12:06:33;;;;;;;2.92;1.60;;;19.70;58.80;;;;;;5100266;28;20482;-73
2023/09/22 12:08:59;;;;;;;2.92;1.30;;;19.70;59.10;;;;;;5086270;28;20042;-74
2023/09/22 12:11:25;;;;;;;3.08;1.70;;;19.70;59.00;;;;;;5102402;28;21753;-73
2023/09/22 12:13:51;;;;;;;1.30;1.10;;;19.60;58.80;;;;;;5103305;28;20454;-74
2023/09/22 12:16:17;;;;;;;3.25;1.45;;;19.60;59.20;;;;;;5069145;28;20051;-75
2023/09/22 12:18:43;;;;;;;3.72;1.40;;;19.60;59.20;;;;;;5103046;28;20058;-74
2023/09/22 12:21:09;;;;;;;3.03;1.55;;;19.60;59.10;;;;;;5102412;28;20039;-74
2023/09/22 12:23:34;;;;;;;2.10;1.38;;;19.50;59.30;;;;;;5083852;28;20050;-72
2023/09/22 12:26:01;;;;;;;1.63;1.27;;;19.50;59.60;;;;;;5101983;28;20123;-73
2023/09/22 12:28:27;;;;;;;3.28;1.67;;;19.50;59.40;;;;;;5102712;28;20119;-72
2023/09/22 12:30:53;;;;;;;3.67;1.20;;;19.40;59.10;;;;;;5099722;28;20538;-73
2023/09/22 12:33:18;;;;;;;3.20;1.40;;;19.40;59.40;;;;;;5099521;28;20036;-72
2023/09/22 12:35:47;;;;;;;2.97;1.30;;;19.30;59.30;;;;;;5100331;28;20035;-73
2023/09/22 12:38:13;;;;;;;2.30;1.30;;;19.40;59.30;;;;;;5084662;28;20032;-73
2023/09/22 12:40:39;;;;;;;1.67;1.50;;;19.10;59.20;;;;;;5100532;28;20050;-73